createdAt,value
2018-03-20T00:01:14.862Z,14.32
2018-03-20T00:03:42.349Z,14.27
2018-03-20T00:06:09.822Z,10.77
2018-03-20T00:08:37.292Z,9.63
2018-03-20T00:11:04.775Z,11.23
2018-03-20T00:13:33.003Z,9.70
2018-03-20T00:16:00.473Z,10.55
2018-03-20T00:18:27.947Z,10.07
2018-03-20T00:20:55.427Z,13.18
2018-03-20T00:23:23.672Z,12.07
2018-03-20T00:25:51.151Z,10.35
2018-03-20T00:28:18.636Z,16.02
2018-03-20T00:30:46.120Z,8.05
2018-03-20T00:33:13.591Z,11.63
2018-03-20T00:35:41.058Z,11.32
2018-03-20T00:38:08.537Z,10.25
2018-03-20T00:40:36.002Z,12.73
2018-03-20T00:43:04.252Z,12.10
2018-03-20T00:45:32.482Z,8.68
2018-03-20T00:47:59.974Z,12.40
2018-03-20T00:50:27.440Z,9.85
2018-03-20T00:52:54.910Z,7.97
2018-03-20T00:55:22.392Z,10.50
2018-03-20T00:57:50.636Z,18.05
2018-03-20T01:00:18.107Z,10.25
2018-03-20T01:02:45.588Z,10.20
2018-03-20T01:05:13.823Z,11.68
2018-03-20T01:07:41.307Z,9.32
2018-03-20T01:10:08.796Z,9.60
2018-03-20T01:12:36.275Z,9.77
2018-03-20T01:15:03.743Z,5.85
2018-03-20T01:17:31.991Z,9.27
2018-03-20T01:19:59.463Z,9.73
2018-03-20T01:22:26.939Z,7.45
2018-03-20T01:24:54.414Z,13.82
2018-03-20T01:27:21.896Z,13.95
2018-03-20T01:29:50.131Z,9.75
2018-03-20T01:32:17.612Z,11.82
2018-03-20T01:34:45.079Z,8.73
2018-03-20T01:37:13.327Z,6.97
2018-03-20T01:39:40.811Z,6.25
2018-03-20T01:42:08.294Z,8.15
2018-03-20T01:44:36.527Z,11.75
2018-03-20T01:47:04.004Z,8.45
2018-03-20T01:49:31.474Z,8.38
2018-03-20T01:51:59.719Z,10.23
2018-03-20T01:54:27.198Z,10.32
2018-03-20T01:56:55.443Z,10.30
2018-03-20T01:59:22.932Z,9.38
2018-03-20T02:01:51.176Z,11.30
2018-03-20T02:04:18.657Z,8.50
2018-03-20T02:06:46.137Z,9.80
2018-03-20T02:09:14.420Z,9.20
2018-03-20T02:11:41.855Z,10.48
2018-03-20T02:14:10.096Z,11.40
2018-03-20T02:16:37.578Z,10.02
2018-03-20T02:19:05.066Z,10.70
2018-03-20T02:21:33.311Z,15.32
2018-03-20T02:24:00.790Z,12.57
2018-03-20T02:26:29.030Z,11.18
2018-03-20T02:28:56.508Z,7.75
2018-03-20T02:31:23.983Z,12.55
2018-03-20T02:33:52.245Z,10.82
2018-03-20T02:36:19.706Z,7.45
2018-03-20T02:38:47.959Z,10.68
2018-03-20T02:41:15.444Z,9.20
2018-03-20T02:43:43.680Z,8.57
2018-03-20T02:46:11.156Z,12.48
2018-03-20T02:48:38.639Z,8.50
2018-03-20T02:51:06.934Z,9.80
2018-03-20T02:53:34.361Z,9.63
2018-03-20T02:56:01.827Z,8.48
2018-03-20T02:58:30.083Z,13.38
2018-03-20T03:00:57.567Z,8.88
2018-03-20T03:03:25.800Z,9.55
2018-03-20T03:05:53.280Z,9.63
2018-03-20T03:08:20.763Z,8.13
2018-03-20T03:10:49.002Z,10.35
2018-03-20T03:13:16.486Z,5.90
2018-03-20T03:15:44.734Z,7.20
2018-03-20T03:18:12.211Z,9.63
2018-03-20T03:20:39.681Z,9.15
2018-03-20T03:23:07.930Z,10.23
2018-03-20T03:25:35.407Z,16.67
2018-03-20T03:28:02.882Z,12.40
2018-03-20T03:30:31.124Z,14.57
2018-03-20T03:32:58.619Z,12.27
2018-03-20T03:35:26.851Z,10.80
2018-03-20T03:37:54.340Z,10.38
2018-03-20T03:40:22.579Z,11.48
2018-03-20T03:42:50.087Z,12.75
2018-03-20T03:45:25.415Z,8.63
2018-03-20T03:47:53.685Z,15.35
2018-03-20T03:50:21.155Z,11.45
2018-03-20T03:52:49.398Z,11.65
2018-03-20T03:55:16.872Z,9.90
2018-03-20T03:57:44.343Z,7.93
2018-03-20T04:00:12.587Z,8.88
2018-03-20T04:02:40.067Z,7.43
2018-03-20T04:05:07.548Z,7.93
2018-03-20T04:07:35.794Z,9.30
2018-03-20T04:10:03.262Z,8.05
2018-03-20T04:12:31.517Z,7.07
2018-03-20T04:14:58.995Z,8.75
2018-03-20T04:17:26.468Z,8.38
2018-03-20T04:19:54.695Z,7.20
2018-03-20T04:22:22.208Z,9.10
2018-03-20T04:24:50.441Z,8.50
2018-03-20T04:27:17.943Z,11.45
2018-03-20T04:29:46.180Z,19.50
2018-03-20T04:32:13.646Z,8.13
2018-03-20T04:34:41.132Z,10.35
2018-03-20T04:37:08.599Z,10.57
2018-03-20T04:39:39.597Z,16.10
2018-03-20T04:42:07.069Z,7.73
2018-03-20T04:44:34.542Z,11.25
2018-03-20T04:47:02.783Z,9.75
2018-03-20T04:49:30.266Z,15.82
2018-03-20T04:51:58.502Z,10.65
2018-03-20T04:54:25.998Z,14.90
2018-03-20T04:56:53.459Z,11.05
2018-03-20T04:59:21.710Z,13.43
2018-03-20T05:01:49.182Z,13.25
2018-03-20T05:04:16.659Z,14.10
2018-03-20T05:06:44.132Z,11.73
2018-03-20T05:09:11.624Z,18.07
2018-03-20T05:11:39.095Z,15.02
2018-03-20T05:14:06.576Z,15.90
2018-03-20T05:16:34.046Z,18.48
2018-03-20T05:19:17.186Z,22.17
2018-03-20T05:21:48.357Z,18.17
2018-03-20T05:24:15.847Z,17.15
2018-03-20T05:26:43.330Z,22.08
2018-03-20T05:29:11.598Z,14.57
2018-03-20T05:31:39.095Z,20.37
2018-03-20T05:34:06.575Z,13.20
2018-03-20T05:36:34.064Z,20.50
2018-03-20T05:39:01.559Z,21.05
2018-03-20T05:41:29.054Z,17.98
2018-03-20T05:43:56.544Z,16.70
2018-03-20T05:49:50.411Z,16.58
2018-03-20T05:52:17.887Z,20.12
2018-03-20T05:54:45.371Z,20.40
2018-03-20T05:57:13.611Z,16.62
2018-03-20T05:59:41.084Z,19.10
2018-03-20T06:02:08.559Z,15.27
2018-03-20T06:04:36.406Z,16.00
2018-03-20T06:07:03.883Z,14.93
2018-03-20T06:09:31.358Z,18.80
2018-03-20T06:11:58.847Z,16.52
2018-03-20T06:14:26.336Z,18.80
2018-03-20T06:16:53.808Z,17.83
2018-03-20T06:19:21.278Z,20.60
2018-03-20T06:21:49.517Z,14.70
2018-03-20T06:24:17.019Z,14.77
2018-03-20T06:26:44.499Z,16.75
2018-03-20T06:29:11.987Z,15.68
2018-03-20T06:31:39.477Z,19.58
2018-03-20T06:34:06.964Z,19.17
2018-03-20T06:36:34.462Z,35.15
2018-03-20T06:39:01.946Z,23.50
2018-03-20T06:41:29.425Z,22.67
2018-03-20T06:43:57.664Z,35.95
2018-03-20T06:46:25.138Z,24.15
2018-03-20T06:48:52.610Z,30.27
2018-03-20T06:51:20.859Z,21.25
2018-03-20T06:53:48.345Z,30.00
2018-03-20T06:56:15.817Z,26.37
2018-03-20T06:58:44.055Z,24.95
2018-03-20T07:01:12.293Z,28.13
2018-03-20T07:03:39.768Z,22.63
2018-03-20T07:06:07.251Z,27.48
2018-03-20T07:08:34.732Z,28.48
2018-03-20T07:11:02.989Z,26.10
2018-03-20T07:13:31.214Z,31.90
2018-03-20T07:15:58.709Z,28.48
2018-03-20T07:18:26.181Z,30.33
2018-03-20T07:20:53.664Z,27.75
2018-03-20T07:23:21.131Z,26.73
2018-03-20T07:25:49.370Z,26.80
2018-03-20T07:28:16.892Z,27.27
2018-03-20T07:30:45.102Z,27.20
2018-03-20T07:33:12.588Z,28.50
2018-03-20T07:35:40.851Z,28.63
2018-03-20T07:38:08.330Z,25.13
2018-03-20T07:40:36.585Z,31.25
2018-03-20T07:43:04.062Z,25.60
2018-03-20T07:45:32.307Z,24.58
2018-03-20T07:47:59.767Z,28.23
2018-03-20T07:50:27.254Z,26.10
2018-03-20T07:52:54.728Z,22.25
2018-03-20T07:55:22.215Z,30.30
2018-03-20T07:57:49.686Z,22.33
2018-03-20T08:00:17.173Z,26.73
2018-03-20T08:02:44.635Z,26.50
2018-03-20T08:05:12.912Z,28.57
2018-03-20T08:07:40.370Z,37.07
2018-03-20T08:10:08.636Z,33.30
2018-03-20T08:12:36.108Z,29.03
2018-03-20T08:15:03.581Z,26.93
2018-03-20T08:17:31.833Z,31.27
2018-03-20T08:19:59.306Z,23.27
2018-03-20T08:22:27.548Z,30.25
2018-03-20T08:24:55.039Z,28.40
2018-03-20T08:27:23.271Z,24.12
2018-03-20T08:29:50.752Z,27.93
2018-03-20T08:32:18.212Z,30.07
2018-03-20T08:34:45.695Z,28.87
2018-03-20T08:37:13.938Z,31.90
2018-03-20T08:39:41.408Z,34.03
2018-03-20T08:42:08.899Z,32.00
2018-03-20T08:44:37.146Z,28.50
2018-03-20T08:47:04.623Z,29.57
2018-03-20T08:49:32.869Z,27.23
2018-03-20T08:52:00.353Z,33.67
2018-03-20T08:54:28.582Z,20.47
2018-03-20T08:56:56.071Z,19.70
2018-03-20T08:59:23.538Z,29.43
2018-03-20T09:01:51.031Z,27.30
2018-03-20T09:04:18.507Z,32.23
2018-03-20T09:06:45.992Z,29.37
2018-03-20T09:09:13.457Z,31.93
2018-03-20T09:11:40.925Z,32.17
2018-03-20T09:14:08.403Z,27.30
2018-03-20T09:16:36.660Z,35.03
2018-03-20T09:19:04.134Z,30.67
2018-03-20T09:21:32.386Z,23.03
2018-03-20T09:23:59.851Z,28.07
2018-03-20T09:26:27.338Z,24.03
2018-03-20T09:28:54.816Z,20.90
2018-03-20T09:31:22.281Z,22.07
2018-03-20T09:33:49.751Z,17.83
2018-03-20T09:36:17.223Z,18.77
2018-03-20T09:38:44.703Z,18.07
2018-03-20T09:41:12.178Z,17.03
2018-03-20T09:43:40.444Z,13.20
2018-03-20T09:46:07.928Z,16.30
2018-03-20T09:48:35.395Z,13.13
2018-03-20T09:51:02.891Z,11.80
2018-03-20T09:53:30.350Z,11.83
2018-03-20T09:55:57.814Z,10.17
2018-03-20T09:58:25.314Z,10.20
2018-03-20T10:00:53.542Z,13.37
2018-03-20T10:03:21.006Z,8.50
2018-03-20T10:05:48.492Z,9.10
2018-03-20T10:08:16.721Z,12.70
2018-03-20T10:10:44.199Z,11.37
2018-03-20T10:13:11.669Z,8.87
2018-03-20T10:15:39.140Z,9.90
2018-03-20T10:18:07.379Z,8.38
2018-03-20T10:20:34.885Z,8.53
2018-03-20T10:23:03.118Z,10.30
2018-03-20T10:25:30.598Z,9.10
2018-03-20T10:27:58.058Z,9.63
2018-03-20T10:30:25.526Z,9.77
2018-03-20T10:32:53.751Z,9.90
2018-03-20T10:35:21.267Z,11.70
2018-03-20T10:37:48.695Z,7.50
2018-03-20T10:40:16.168Z,9.30
2018-03-20T10:42:43.636Z,8.47
2018-03-20T10:45:11.882Z,10.20
2018-03-20T10:47:39.358Z,8.90
2018-03-20T10:50:06.822Z,9.07
2018-03-20T10:52:35.067Z,6.90
2018-03-20T10:55:02.543Z,7.10
2018-03-20T10:57:29.991Z,9.20
2018-03-20T10:59:57.455Z,10.33
2018-03-20T11:02:30.571Z,11.00
2018-03-20T11:04:58.802Z,10.67
2018-03-20T11:07:26.278Z,10.60
2018-03-20T11:09:53.738Z,10.87
2018-03-20T11:12:21.214Z,12.17
2018-03-20T11:14:49.455Z,13.90
2018-03-20T11:17:16.921Z,10.00
2018-03-20T11:19:44.391Z,11.10
2018-03-20T11:22:11.859Z,9.70
2018-03-20T11:24:46.445Z,26.07
2018-03-20T11:27:13.981Z,14.83
2018-03-20T11:29:41.453Z,15.20
2018-03-20T11:32:08.934Z,12.83
2018-03-20T11:34:36.402Z,11.53
2018-03-20T11:37:03.900Z,9.63
2018-03-20T11:39:32.148Z,12.73
2018-03-20T11:41:59.610Z,9.60
2018-03-20T11:44:27.075Z,11.40
2018-03-20T11:46:55.305Z,16.00
2018-03-20T11:49:22.771Z,13.10
2018-03-20T11:51:50.237Z,8.80
2018-03-20T11:54:17.714Z,11.30
2018-03-20T11:56:45.188Z,13.33
2018-03-20T11:59:13.419Z,11.00
2018-03-20T12:01:40.892Z,7.73
2018-03-20T12:04:08.349Z,8.40
2018-03-20T12:06:36.174Z,9.50
2018-03-20T12:09:09.494Z,8.27
2018-03-20T12:11:36.958Z,8.87
2018-03-20T12:14:05.181Z,9.60
2018-03-20T12:16:33.443Z,6.90
2018-03-20T12:19:01.687Z,8.80
2018-03-20T12:21:29.155Z,8.90
2018-03-20T12:23:56.625Z,5.07
2018-03-20T12:26:24.088Z,5.37
2018-03-20T12:28:51.548Z,5.97
2018-03-20T12:31:19.007Z,6.80
2018-03-20T12:33:46.463Z,6.10
2018-03-20T12:36:13.930Z,5.20
2018-03-20T12:38:42.150Z,6.70
2018-03-20T12:41:10.111Z,11.70
2018-03-20T12:43:37.568Z,7.80
2018-03-20T12:46:05.021Z,6.90
2018-03-20T12:48:32.487Z,6.90
2018-03-20T12:50:59.962Z,4.97
2018-03-20T12:53:27.419Z,5.03
2018-03-20T12:55:54.879Z,5.17
2018-03-20T12:58:22.346Z,3.83
2018-03-20T13:00:49.834Z,8.10
2018-03-20T13:03:18.065Z,8.30
2018-03-20T13:05:45.543Z,11.30
2018-03-20T13:08:13.014Z,12.07
2018-03-20T13:10:40.474Z,6.20
2018-03-20T13:13:07.952Z,5.00
2018-03-20T13:15:36.174Z,3.97
2018-03-20T13:18:03.646Z,7.17
2018-03-20T13:20:31.870Z,6.67
2018-03-20T13:22:59.334Z,4.67
2018-03-20T13:25:26.794Z,4.60
2018-03-20T13:27:54.263Z,5.23
2018-03-20T13:30:21.730Z,8.27
2018-03-20T13:32:49.193Z,4.07
2018-03-20T13:35:16.674Z,5.80
2018-03-20T13:37:44.939Z,6.70
2018-03-20T13:40:12.399Z,5.17
2018-03-20T13:42:39.892Z,5.53
2018-03-20T13:45:07.357Z,8.03
2018-03-20T13:47:35.594Z,3.43
2018-03-20T13:50:03.054Z,6.63
2018-03-20T13:52:30.531Z,6.57
2018-03-20T13:54:57.999Z,4.37
2018-03-20T13:57:25.476Z,9.50
2018-03-20T13:59:53.698Z,3.50
2018-03-20T14:02:21.178Z,8.03
2018-03-20T14:04:48.632Z,5.67
2018-03-20T14:07:16.109Z,11.93
2018-03-20T14:09:43.572Z,5.40
2018-03-20T14:12:11.851Z,3.70
2018-03-20T14:14:40.113Z,3.27
2018-03-20T14:17:07.562Z,3.77
2018-03-20T14:19:35.030Z,4.90
2018-03-20T14:22:02.513Z,3.03
2018-03-20T14:24:30.730Z,4.77
2018-03-20T14:26:58.201Z,6.00
2018-03-20T14:29:25.658Z,7.17
2018-03-20T14:31:53.124Z,5.60
2018-03-20T14:34:20.588Z,3.03
2018-03-20T14:36:48.061Z,4.57
2018-03-20T14:39:16.294Z,3.93
2018-03-20T14:41:43.764Z,4.87
2018-03-20T14:44:11.226Z,3.50
2018-03-20T14:46:38.688Z,4.67
2018-03-20T14:49:06.917Z,5.60
2018-03-20T14:51:34.379Z,4.10
2018-03-20T14:54:01.839Z,4.27
2018-03-20T14:56:29.311Z,4.13
2018-03-20T14:58:56.783Z,2.87
2018-03-20T15:01:24.241Z,4.80
2018-03-20T15:03:51.705Z,4.03
2018-03-20T15:06:19.163Z,3.73
2018-03-20T15:08:46.647Z,3.73
2018-03-20T15:11:14.120Z,3.73
2018-03-20T15:13:41.582Z,3.40
2018-03-20T15:16:09.837Z,4.00
2018-03-20T15:18:37.277Z,11.30
2018-03-20T15:21:04.735Z,5.30
2018-03-20T15:23:32.217Z,5.83
2018-03-20T15:25:59.658Z,3.50
2018-03-20T15:28:27.123Z,4.97
2018-03-20T15:30:54.578Z,2.60
2018-03-20T15:33:22.055Z,2.73
2018-03-20T15:35:50.283Z,3.70
2018-03-20T15:38:17.755Z,5.40
2018-03-20T15:40:45.211Z,4.87
2018-03-20T15:43:12.693Z,4.37
2018-03-20T15:45:40.166Z,4.43
2018-03-20T15:48:08.407Z,5.70
2018-03-20T15:50:35.866Z,5.13
2018-03-20T15:53:03.326Z,5.50
2018-03-20T15:55:30.783Z,3.90
2018-03-20T15:57:58.263Z,3.87
2018-03-20T16:00:25.718Z,3.07
2018-03-20T16:02:53.182Z,4.87
2018-03-20T16:05:21.406Z,4.97
2018-03-20T16:07:48.879Z,4.43
2018-03-20T16:10:16.347Z,5.13
2018-03-20T16:12:43.821Z,7.17
2018-03-20T16:15:11.280Z,5.80
2018-03-20T16:17:38.744Z,6.10
2018-03-20T16:20:06.200Z,2.93
2018-03-20T16:22:33.662Z,5.90
2018-03-20T16:25:01.114Z,3.03
2018-03-20T16:27:28.584Z,5.80
2018-03-20T16:29:56.047Z,2.63
2018-03-20T16:32:24.282Z,3.33
2018-03-20T16:34:51.742Z,9.53
2018-03-20T16:37:19.212Z,7.87
2018-03-20T16:39:46.674Z,13.50
2018-03-20T16:42:14.138Z,5.10
2018-03-20T16:44:41.599Z,9.80
2018-03-20T16:47:09.066Z,10.10
2018-03-20T16:49:37.300Z,3.33
2018-03-20T16:52:04.773Z,2.40
2018-03-20T16:54:32.229Z,2.07
2018-03-20T16:56:59.683Z,4.53
2018-03-20T16:59:27.169Z,3.77
2018-03-20T17:01:54.611Z,4.20
2018-03-20T17:04:22.088Z,2.60
2018-03-20T17:06:50.315Z,2.27
2018-03-20T17:09:17.794Z,9.33
2018-03-20T17:11:45.254Z,5.47
2018-03-20T17:14:12.732Z,3.27
2018-03-20T17:16:40.182Z,4.50
2018-03-20T17:19:07.654Z,3.00
2018-03-20T17:21:35.105Z,2.67
2018-03-20T17:24:02.587Z,3.57
2018-03-20T17:26:30.042Z,4.10
2018-03-20T17:28:58.284Z,4.87
2018-03-20T17:31:25.750Z,2.77
2018-03-20T17:33:53.211Z,3.50
2018-03-20T17:36:20.676Z,2.43
2018-03-20T17:38:48.144Z,2.20
2018-03-20T17:41:16.374Z,4.00
2018-03-20T17:43:43.852Z,4.63
2018-03-20T17:46:12.822Z,6.03
2018-03-20T17:48:40.269Z,3.30
2018-03-20T17:51:07.726Z,3.10
2018-03-20T17:53:35.197Z,3.30
2018-03-20T17:56:02.659Z,3.30
2018-03-20T17:58:30.132Z,4.10
2018-03-20T18:00:57.632Z,5.23
2018-03-20T18:03:25.045Z,3.80
2018-03-20T18:05:52.504Z,3.30
2018-03-20T18:08:19.970Z,6.40
2018-03-20T18:10:47.431Z,5.43
2018-03-20T18:13:14.922Z,4.73
2018-03-20T18:15:42.390Z,4.33
2018-03-20T18:18:09.859Z,4.00
2018-03-20T18:20:37.328Z,2.70
2018-03-20T18:23:04.801Z,4.57
2018-03-20T18:25:32.255Z,4.10
2018-03-20T18:27:59.727Z,4.73
2018-03-20T18:30:27.174Z,6.40
2018-03-20T18:32:54.698Z,3.80
2018-03-20T18:35:22.102Z,2.57
2018-03-20T18:37:49.564Z,2.30
2018-03-20T18:40:17.040Z,4.20
2018-03-20T18:42:45.258Z,3.23
2018-03-20T18:45:12.730Z,3.90
2018-03-20T18:47:40.206Z,2.50
2018-03-20T18:50:07.934Z,3.90
2018-03-20T18:52:35.391Z,3.22
2018-03-20T18:55:02.866Z,3.05
2018-03-20T18:57:30.335Z,6.35
2018-03-20T18:59:57.812Z,10.35
2018-03-20T19:02:25.287Z,5.07
2018-03-20T19:04:53.515Z,4.90
2018-03-20T19:07:20.978Z,7.32
2018-03-20T19:09:49.227Z,5.12
2018-03-20T19:12:16.702Z,8.10
2018-03-20T19:14:44.174Z,4.93
2018-03-20T19:17:11.643Z,5.20
2018-03-20T19:19:39.114Z,9.65
2018-03-20T19:22:06.582Z,3.23
2018-03-20T19:24:34.835Z,6.22
2018-03-20T19:27:02.308Z,3.42
2018-03-20T19:29:29.787Z,8.57
2018-03-20T19:31:57.309Z,5.82
2018-03-20T19:34:24.741Z,6.22
2018-03-20T19:36:52.215Z,4.55
2018-03-20T19:39:19.690Z,5.75
2018-03-20T19:41:47.162Z,5.37
2018-03-20T19:44:15.405Z,7.93
2018-03-20T19:46:42.861Z,6.20
2018-03-20T19:49:10.340Z,6.50
2018-03-20T19:51:37.807Z,8.80
2018-03-20T19:54:05.278Z,10.30
2018-03-20T19:56:33.530Z,11.12
2018-03-20T19:59:01.003Z,10.90
2018-03-20T20:01:29.242Z,12.18
2018-03-20T20:03:56.719Z,11.98
2018-03-20T20:06:24.181Z,16.20
2018-03-20T20:08:51.665Z,12.63
2018-03-20T20:11:19.897Z,13.27
2018-03-20T20:13:47.394Z,16.25
2018-03-20T20:16:15.628Z,11.40
2018-03-20T20:18:43.107Z,14.00
2018-03-20T20:21:10.575Z,13.93
2018-03-20T20:23:38.822Z,10.25
2018-03-20T20:26:06.290Z,9.90
2018-03-20T20:28:33.768Z,11.60
2018-03-20T20:31:02.011Z,17.17
2018-03-20T20:33:30.250Z,14.65
2018-03-20T20:35:57.732Z,15.15
2018-03-20T20:38:25.229Z,12.90
2018-03-20T20:40:52.690Z,12.45
2018-03-20T20:43:20.176Z,12.57
2018-03-20T20:45:47.649Z,13.57
2018-03-20T20:48:15.628Z,15.25
2018-03-20T20:50:43.108Z,13.38
2018-03-20T20:53:10.583Z,13.35
2018-03-20T20:55:38.055Z,13.98
2018-03-20T20:58:06.287Z,13.38
2018-03-20T21:00:34.152Z,11.50
2018-03-20T21:03:01.614Z,13.30
2018-03-20T21:05:29.098Z,12.18
2018-03-20T21:07:56.562Z,9.75
2018-03-20T21:10:24.051Z,11.68
2018-03-20T21:12:51.514Z,9.85
2018-03-20T21:15:18.995Z,12.00
2018-03-20T21:17:46.462Z,6.82
2018-03-20T21:20:13.940Z,6.80
2018-03-20T21:22:41.411Z,8.77
2018-03-20T21:25:08.886Z,14.43
2018-03-20T21:27:37.124Z,7.72
2018-03-20T21:30:04.599Z,7.35
2018-03-20T21:32:32.070Z,6.90
2018-03-20T21:35:00.328Z,10.95
2018-03-20T21:37:27.797Z,10.45
2018-03-20T21:39:55.265Z,10.43
2018-03-20T21:42:23.500Z,9.57
2018-03-20T21:44:50.970Z,10.48
2018-03-20T21:47:18.435Z,9.77
2018-03-20T21:49:45.911Z,9.50
2018-03-20T21:52:14.147Z,10.30
2018-03-20T21:54:41.621Z,14.38
2018-03-20T21:57:09.086Z,12.05
2018-03-20T21:59:36.567Z,12.68
2018-03-20T22:02:04.839Z,8.73
2018-03-20T22:04:32.286Z,10.45
2018-03-20T22:06:59.764Z,11.48
2018-03-20T22:09:28.024Z,11.32
2018-03-20T22:11:55.490Z,17.12
2018-03-20T22:14:23.735Z,7.70
2018-03-20T22:16:51.199Z,10.23
2018-03-20T22:19:18.680Z,9.73
2018-03-20T22:21:46.150Z,11.15
2018-03-20T22:24:14.398Z,17.12
2018-03-20T22:26:41.864Z,12.70
2018-03-20T22:29:09.349Z,13.62
2018-03-20T22:31:37.613Z,11.68
2018-03-20T22:34:05.088Z,11.43
2018-03-20T22:36:33.329Z,17.75
2018-03-20T22:39:00.814Z,15.45
2018-03-20T22:41:29.042Z,11.73
2018-03-20T22:43:56.524Z,12.63
2018-03-20T22:46:24.049Z,10.65
2018-03-20T22:48:51.514Z,10.32
2018-03-20T22:51:18.995Z,10.57
2018-03-20T22:53:46.471Z,12.55
2018-03-20T22:56:14.714Z,9.68
2018-03-20T22:58:42.193Z,10.75
2018-03-20T23:01:09.827Z,11.15
2018-03-20T23:03:37.299Z,15.57
2018-03-20T23:06:04.782Z,9.70
2018-03-20T23:08:33.036Z,10.65
2018-03-20T23:11:00.515Z,14.52
2018-03-20T23:13:28.746Z,17.65
2018-03-20T23:15:56.226Z,13.70
2018-03-20T23:18:23.700Z,17.58
2018-03-20T23:20:51.183Z,12.95
2018-03-20T23:23:18.655Z,13.65
2018-03-20T23:25:46.126Z,10.40
2018-03-20T23:28:13.601Z,11.95
2018-03-20T23:30:41.070Z,9.80
2018-03-20T23:33:08.543Z,9.52
2018-03-20T23:35:36.026Z,12.00
2018-03-20T23:38:04.263Z,11.10
2018-03-20T23:40:31.739Z,11.30
2018-03-20T23:42:59.201Z,8.50
2018-03-20T23:45:27.442Z,9.77
2018-03-20T23:47:54.916Z,12.32
2018-03-20T23:50:22.395Z,8.27
2018-03-20T23:52:50.635Z,9.43
2018-03-20T23:55:18.879Z,14.98
2018-03-20T23:57:46.347Z,8.98
